createdAt,value
2019-05-07T00:00:15.442Z,61.900002
2019-05-07T00:05:38.222Z,70.199997
2019-05-07T00:11:02.363Z,57.200001
2019-05-07T00:16:24.719Z,88.300003
2019-05-07T00:21:47.668Z,58.299999
2019-05-07T00:27:10.417Z,67.699997
2019-05-07T00:32:33.094Z,68.699997
2019-05-07T00:37:55.750Z,63.200001
2019-05-07T00:43:18.497Z,57.400002
2019-05-07T00:48:42.360Z,71.400002
2019-05-07T00:54:04.849Z,60.599998
2019-05-07T00:59:27.736Z,60.900002
2019-05-07T01:04:53.152Z,71.300003
2019-05-07T01:10:14.045Z,73.400002
2019-05-07T01:15:37.536Z,87.099998
2019-05-07T01:21:02.372Z,79.900002
2019-05-07T01:26:24.431Z,70.699997
2019-05-07T01:31:47.223Z,85.900002
2019-05-07T01:37:12.374Z,78.099998
2019-05-07T01:42:36.456Z,93.900002
2019-05-07T01:47:56.801Z,101.3
2019-05-07T01:53:22.498Z,134.3
2019-05-07T01:58:44.100Z,111
2019-05-07T02:04:06.972Z,112.8
2019-05-07T02:09:33.888Z,114.09999
2019-05-07T02:14:54.607Z,102.19999
2019-05-07T02:20:17.572Z,95
2019-05-07T02:25:41.955Z,96.599998
2019-05-07T02:31:03.990Z,92.400002
2019-05-07T02:36:25.571Z,131.5
2019-05-07T02:41:48.271Z,90.800003
2019-05-07T02:47:12.870Z,97.800003
2019-05-07T02:52:33.896Z,95.900002
2019-05-07T02:57:56.580Z,100
2019-05-07T03:03:19.897Z,108.8
2019-05-07T03:08:44.039Z,89.699997
2019-05-07T03:14:06.002Z,89.599998
2019-05-07T03:19:29.300Z,78.599998
2019-05-07T03:24:53.934Z,108.9
2019-05-07T03:30:17.449Z,96.699997
2019-05-07T03:35:39.346Z,756.59997
2019-05-07T03:41:03.819Z,1004.5999
2019-05-07T03:46:26.143Z,517.40002
2019-05-07T03:51:49.202Z,648.20001
2019-05-07T03:57:15.590Z,175.6
2019-05-07T04:02:36.777Z,426
2019-05-07T04:07:59.405Z,537.5
2019-05-07T04:13:24.076Z,608.79998
2019-05-07T04:18:46.175Z,685.40002
2019-05-07T04:24:08.881Z,1014.4
2019-05-07T04:29:35.010Z,482.5
2019-05-07T04:34:57.177Z,559.29998
